Terminal Aerodrome Forecast
Issued by NWS

Home | Current Version | Previous Version | Text Only | Print | Product List | Glossary On
Versions: 1 2 3 4 5 6 7 8 9 10 11 12 13
504
FTUS42 KILM 211720
TAFCRE
TAF
KCRE 211720Z 2118/2218 00000KT P6SM FEW140
     FM212100 17006KT P6SM FEW120
     FM221700 VRB03KT P6SM VCSH BKN035=

USA.gov is the U.S. government's official web portal to all federal, state and local government web resources and services.